createdAt,value
2023-03-18T00:01:24.135Z,12.93
2023-03-18T00:03:52.444Z,12.73
2023-03-18T00:06:22.074Z,13.02
2023-03-18T00:08:50.841Z,13.70
2023-03-18T00:11:21.412Z,12.50
2023-03-18T00:13:49.793Z,12.60
2023-03-18T00:16:18.301Z,12.90
2023-03-18T00:18:45.919Z,12.55
2023-03-18T00:21:13.923Z,13.32
2023-03-18T00:23:42.228Z,14.40
2023-03-18T00:26:10.145Z,13.32
2023-03-18T00:28:41.958Z,12.70
2023-03-18T00:31:13.936Z,12.68
2023-03-18T00:33:46.256Z,12.55
2023-03-18T00:36:16.744Z,12.27
2023-03-18T00:38:47.072Z,11.05
2023-03-18T00:41:16.229Z,11.93
2023-03-18T00:43:47.136Z,13.50
2023-03-18T00:46:24.629Z,13.23
2023-03-18T00:48:55.045Z,11.60
2023-03-18T00:51:26.070Z,13.93
2023-03-18T00:53:57.841Z,12.30
2023-03-18T00:56:29.446Z,12.30
2023-03-18T00:58:58.493Z,13.73
2023-03-18T01:01:29.684Z,13.25
2023-03-18T01:04:01.549Z,13.40
2023-03-18T01:06:34.437Z,14.98
2023-03-18T01:09:05.163Z,14.30
2023-03-18T01:11:34.247Z,13.93
2023-03-18T01:14:02.440Z,14.50
2023-03-18T01:16:30.580Z,15.10
2023-03-18T01:18:58.683Z,14.18
2023-03-18T01:21:26.850Z,16.35
2023-03-18T01:24:00.581Z,14.57
2023-03-18T01:26:29.492Z,15.15
2023-03-18T01:29:00.583Z,14.50
2023-03-18T01:31:30.224Z,14.43
2023-03-18T01:34:03.462Z,15.20
2023-03-18T01:36:40.920Z,13.75
2023-03-18T01:39:10.660Z,14.10
2023-03-18T01:41:40.347Z,14.48
2023-03-18T01:44:19.258Z,13.70
2023-03-18T01:46:50.307Z,15.30
2023-03-18T01:49:34.050Z,13.88
2023-03-18T01:52:22.624Z,15.77
2023-03-18T01:54:59.102Z,15.65
2023-03-18T01:57:30.264Z,15.70
2023-03-18T01:59:59.829Z,14.40
2023-03-18T02:02:29.296Z,13.52
2023-03-18T02:05:01.940Z,13.75
2023-03-18T02:07:34.275Z,14.35
2023-03-18T02:10:11.106Z,13.50
2023-03-18T02:12:42.430Z,14.15
2023-03-18T02:15:14.837Z,13.35
2023-03-18T02:17:48.799Z,13.98
2023-03-18T02:20:58.668Z,13.15
2023-03-18T02:23:39.470Z,13.07
2023-03-18T02:26:23.670Z,13.38
2023-03-18T02:28:56.336Z,12.27
2023-03-18T02:31:25.329Z,13.63
2023-03-18T02:33:54.505Z,13.35
2023-03-18T02:36:28.506Z,15.63
2023-03-18T02:38:58.061Z,14.07
2023-03-18T02:41:33.829Z,14.68
2023-03-18T02:44:02.742Z,14.68
2023-03-18T02:46:49.220Z,13.85
2023-03-18T02:49:19.357Z,13.45
2023-03-18T02:51:47.060Z,14.27
2023-03-18T02:54:20.678Z,13.30
2023-03-18T02:56:48.756Z,14.35
2023-03-18T02:59:17.557Z,12.95
2023-03-18T03:01:47.803Z,13.18
2023-03-18T03:04:17.616Z,13.35
2023-03-18T03:06:46.427Z,13.02
2023-03-18T03:09:18.042Z,12.45
2023-03-18T03:11:48.243Z,13.50
2023-03-18T03:14:22.429Z,12.57
2023-03-18T03:16:53.772Z,11.50
2023-03-18T03:19:21.782Z,13.75
2023-03-18T03:21:49.872Z,13.35
2023-03-18T03:24:18.546Z,12.65
2023-03-18T03:26:48.122Z,12.00
2023-03-18T03:29:16.183Z,13.68
2023-03-18T03:31:43.756Z,13.85
2023-03-18T03:34:11.962Z,13.70
2023-03-18T03:36:39.975Z,11.88
2023-03-18T03:39:08.568Z,12.93
2023-03-18T03:41:36.282Z,13.95
2023-03-18T03:44:04.877Z,12.50
2023-03-18T03:46:32.960Z,12.88
2023-03-18T03:49:01.846Z,13.68
2023-03-18T03:51:29.527Z,13.82
2023-03-18T03:53:57.585Z,13.73
2023-03-18T03:56:25.385Z,12.68
2023-03-18T03:58:53.968Z,14.50
2023-03-18T04:01:23.508Z,13.13
2023-03-18T04:03:51.761Z,14.43
2023-03-18T04:06:19.870Z,14.73
2023-03-18T04:08:56.675Z,13.95
2023-03-18T04:11:24.351Z,12.88
2023-03-18T04:13:52.611Z,13.95
2023-03-18T04:16:22.115Z,13.98
2023-03-18T04:18:50.586Z,14.88
2023-03-18T04:21:19.046Z,14.13
2023-03-18T04:23:51.190Z,15.63
2023-03-18T04:26:19.220Z,13.52
2023-03-18T04:28:47.497Z,13.25
2023-03-18T04:31:17.037Z,14.68
2023-03-18T04:33:45.678Z,13.45
2023-03-18T04:36:13.726Z,13.50
2023-03-18T04:38:41.663Z,15.45
2023-03-18T04:41:09.817Z,15.10
2023-03-18T04:43:39.182Z,15.80
2023-03-18T04:46:08.825Z,16.02
2023-03-18T04:48:37.551Z,15.63
2023-03-18T04:51:09.361Z,14.38
2023-03-18T04:53:37.994Z,14.98
2023-03-18T04:56:07.269Z,14.68
2023-03-18T04:58:43.986Z,14.75
2023-03-18T05:03:45.504Z,14.40
2023-03-18T05:06:23.038Z,14.02
2023-03-18T05:09:06.139Z,14.50
2023-03-18T05:11:36.106Z,13.68
2023-03-18T05:14:15.663Z,14.70
2023-03-18T05:16:47.268Z,13.88
2023-03-18T05:19:15.721Z,14.20
2023-03-18T05:21:51.715Z,13.75
2023-03-18T05:24:20.545Z,14.32
2023-03-18T05:26:48.353Z,15.73
2023-03-18T05:29:18.134Z,16.25
2023-03-18T05:31:58.775Z,14.98
2023-03-18T05:34:28.312Z,14.77
2023-03-18T05:36:57.795Z,13.40
2023-03-18T05:39:26.744Z,14.82
2023-03-18T05:41:54.568Z,14.15
2023-03-18T05:44:29.537Z,15.07
2023-03-18T05:47:02.746Z,15.75
2023-03-18T05:49:46.537Z,13.70
2023-03-18T05:52:20.434Z,14.75
2023-03-18T05:54:50.761Z,16.05
2023-03-18T05:57:24.990Z,15.95
2023-03-18T06:02:27.882Z,16.13
2023-03-18T06:04:56.223Z,15.73
2023-03-18T06:07:24.614Z,15.23
2023-03-18T06:09:53.590Z,15.45
2023-03-18T06:12:24.124Z,16.45
2023-03-18T06:14:52.391Z,15.50
2023-03-18T06:17:21.361Z,15.38
2023-03-18T06:19:49.949Z,13.88
2023-03-18T06:22:17.683Z,15.35
2023-03-18T06:24:47.880Z,15.38
2023-03-18T06:27:17.957Z,15.35
2023-03-18T06:29:48.992Z,14.13
2023-03-18T06:32:19.391Z,13.85
2023-03-18T06:34:48.056Z,14.68
2023-03-18T06:37:15.759Z,15.73
2023-03-18T06:39:44.886Z,15.57
2023-03-18T06:42:14.194Z,14.30
2023-03-18T06:45:08.473Z,14.15
2023-03-18T06:47:50.922Z,14.23
2023-03-18T06:50:19.330Z,15.20
2023-03-18T06:52:48.309Z,14.98
2023-03-18T06:55:19.080Z,14.45
2023-03-18T06:57:47.857Z,14.43
2023-03-18T07:00:20.055Z,15.00
2023-03-18T07:02:49.821Z,16.55
2023-03-18T07:05:20.876Z,14.23
2023-03-18T07:07:48.681Z,16.25
2023-03-18T07:10:27.327Z,15.15
2023-03-18T07:15:28.857Z,14.73
2023-03-18T07:18:00.643Z,14.98
2023-03-18T07:20:29.848Z,14.25
2023-03-18T07:22:58.007Z,16.27
2023-03-18T07:25:25.704Z,15.40
2023-03-18T07:27:53.498Z,15.05
2023-03-18T07:30:22.060Z,14.63
2023-03-18T07:32:50.057Z,15.35
2023-03-18T07:35:18.697Z,15.32
2023-03-18T07:37:46.315Z,14.82
2023-03-18T07:40:14.791Z,14.95
2023-03-18T07:42:43.092Z,15.27
2023-03-18T07:45:11.408Z,13.57
2023-03-18T07:47:40.069Z,14.65
2023-03-18T07:50:08.205Z,14.65
2023-03-18T07:52:37.532Z,14.35
2023-03-18T07:55:05.564Z,14.93
2023-03-18T07:57:33.593Z,14.98
2023-03-18T08:00:01.749Z,16.17
2023-03-18T08:02:42.334Z,15.18
2023-03-18T08:05:10.732Z,15.07
2023-03-18T08:07:38.752Z,14.95
2023-03-18T08:10:09.025Z,15.13
2023-03-18T08:12:51.654Z,13.80
2023-03-18T08:15:22.475Z,15.30
2023-03-18T08:17:52.615Z,15.32
2023-03-18T08:20:21.507Z,15.38
2023-03-18T08:22:50.174Z,16.45
2023-03-18T08:25:18.880Z,15.45
2023-03-18T08:27:46.424Z,14.98
2023-03-18T08:30:15.117Z,16.10
2023-03-18T08:32:43.606Z,16.45
2023-03-18T08:35:12.864Z,16.40
2023-03-18T08:37:40.633Z,14.57
2023-03-18T08:40:10.014Z,14.23
2023-03-18T08:42:37.984Z,14.43
2023-03-18T08:45:10.366Z,15.30
2023-03-18T08:47:38.967Z,15.50
2023-03-18T08:50:07.650Z,14.88
2023-03-18T08:52:38.176Z,14.88
2023-03-18T08:55:12.842Z,15.05
2023-03-18T08:57:40.912Z,14.82
2023-03-18T09:00:10.118Z,15.60
2023-03-18T09:02:39.131Z,13.50
2023-03-18T09:05:07.443Z,14.52
2023-03-18T09:07:35.075Z,16.40
2023-03-18T09:10:04.528Z,17.73
2023-03-18T09:12:32.706Z,16.08
2023-03-18T09:15:00.772Z,15.10
2023-03-18T09:17:45.209Z,14.65
2023-03-18T09:20:18.091Z,16.10
2023-03-18T09:22:47.415Z,15.10
2023-03-18T09:25:16.899Z,14.65
2023-03-18T09:27:45.862Z,15.52
2023-03-18T09:30:14.272Z,13.73
2023-03-18T09:32:42.948Z,13.40
2023-03-18T09:35:13.122Z,14.65
2023-03-18T09:37:41.433Z,14.32
2023-03-18T09:40:17.119Z,14.95
2023-03-18T09:43:05.836Z,13.82
2023-03-18T09:45:41.277Z,14.38
2023-03-18T09:48:15.233Z,12.57
2023-03-18T09:50:58.867Z,13.60
2023-03-18T09:54:14.336Z,13.90
2023-03-18T09:56:43.987Z,13.32
2023-03-18T09:59:34.673Z,12.65
2023-03-18T10:02:04.956Z,12.13
2023-03-18T10:04:46.663Z,12.38
2023-03-18T10:07:20.128Z,11.82
2023-03-18T10:12:37.912Z,13.25
2023-03-18T10:15:21.749Z,14.18
2023-03-18T10:18:04.162Z,13.73
2023-03-18T10:20:34.990Z,12.52
2023-03-18T10:23:31.982Z,12.50
2023-03-18T10:26:06.402Z,14.40
2023-03-18T10:28:40.317Z,13.90
2023-03-18T10:31:22.823Z,12.52
2023-03-18T10:34:06.743Z,13.85
2023-03-18T10:37:19.267Z,13.05
2023-03-18T10:39:50.272Z,13.48
2023-03-18T10:42:32.507Z,12.73
2023-03-18T10:45:17.394Z,13.27
2023-03-18T10:47:52.342Z,14.35
2023-03-18T10:50:29.971Z,14.65
2023-03-18T10:53:07.430Z,14.13
2023-03-18T10:55:43.055Z,16.00
2023-03-18T10:58:16.898Z,13.15
2023-03-18T11:00:45.222Z,13.90
2023-03-18T11:03:21.866Z,13.93
2023-03-18T11:05:53.440Z,12.90
2023-03-18T11:08:39.730Z,14.10
2023-03-18T11:11:14.327Z,13.98
2023-03-18T11:13:50.781Z,14.00
2023-03-18T11:16:38.405Z,15.98
2023-03-18T11:19:09.453Z,13.23
2023-03-18T11:21:39.148Z,14.18
2023-03-18T11:24:36.068Z,14.27
2023-03-18T11:27:04.468Z,13.80
2023-03-18T11:29:34.992Z,14.35
2023-03-18T11:32:03.588Z,15.63
2023-03-18T11:34:35.039Z,15.40
2023-03-18T11:37:04.941Z,16.60
2023-03-18T11:39:37.758Z,15.18
2023-03-18T11:42:22.659Z,15.20
2023-03-18T11:44:55.414Z,16.58
2023-03-18T11:47:28.205Z,14.63
2023-03-18T11:49:57.564Z,15.30
2023-03-18T11:52:39.468Z,16.70
2023-03-18T11:55:34.144Z,17.02
2023-03-18T11:58:18.685Z,16.65
2023-03-18T12:01:01.625Z,15.10
2023-03-18T12:03:48.420Z,14.23
2023-03-18T12:06:30.873Z,14.85
2023-03-18T12:09:37.039Z,14.82
2023-03-18T12:12:19.740Z,16.38
2023-03-18T12:14:58.418Z,17.02
2023-03-18T12:17:50.346Z,17.52
2023-03-18T12:20:50.738Z,17.63
2023-03-18T12:23:27.528Z,17.00
2023-03-18T12:26:04.567Z,19.25
2023-03-18T12:28:52.021Z,18.83
2023-03-18T12:31:25.509Z,18.23
2023-03-18T12:36:32.387Z,18.52
2023-03-18T12:39:19.180Z,18.48
2023-03-18T12:42:27.156Z,19.25
2023-03-18T12:45:02.302Z,19.33
2023-03-18T12:47:37.250Z,19.63
2023-03-18T12:50:19.692Z,18.33
2023-03-18T12:52:53.806Z,17.35
2023-03-18T12:55:39.740Z,18.35
2023-03-18T12:58:15.359Z,18.90
2023-03-18T13:00:52.454Z,18.63
2023-03-18T13:03:38.707Z,17.70
2023-03-18T13:06:20.383Z,17.20
2023-03-18T13:08:51.302Z,20.00
2023-03-18T13:11:40.695Z,18.70
2023-03-18T13:14:31.662Z,19.02
2023-03-18T13:17:00.971Z,18.58
2023-03-18T13:19:31.139Z,19.20
2023-03-18T13:22:20.788Z,21.05
2023-03-18T13:24:54.804Z,19.98
2023-03-18T13:27:38.022Z,19.85
2023-03-18T13:30:18.509Z,21.23
2023-03-18T13:33:15.733Z,20.50
2023-03-18T13:36:12.729Z,21.02
2023-03-18T13:39:00.026Z,21.48
2023-03-18T13:41:59.405Z,19.75
2023-03-18T13:45:09.098Z,19.95
2023-03-18T13:47:39.393Z,20.63
2023-03-18T13:50:19.100Z,21.15
2023-03-18T13:52:49.507Z,20.02
2023-03-18T13:55:34.821Z,20.73
2023-03-18T13:58:06.369Z,21.02
2023-03-18T14:00:38.604Z,20.10
2023-03-18T14:03:23.126Z,21.15
2023-03-18T14:06:13.380Z,19.75
2023-03-18T14:08:44.057Z,20.08
2023-03-18T14:11:16.725Z,20.45
2023-03-18T14:13:48.467Z,19.55
2023-03-18T14:16:20.547Z,19.75
2023-03-18T14:19:19.439Z,21.55
2023-03-18T14:21:53.245Z,20.27
2023-03-18T14:24:26.250Z,20.63
2023-03-18T14:27:06.803Z,19.88
2023-03-18T14:29:43.348Z,21.20
2023-03-18T14:32:23.387Z,20.17
2023-03-18T14:34:59.015Z,21.25
2023-03-18T14:37:30.604Z,20.73
2023-03-18T14:40:18.698Z,21.40
2023-03-18T14:43:00.056Z,20.58
2023-03-18T14:45:33.656Z,21.85
2023-03-18T14:48:30.047Z,20.75
2023-03-18T14:51:01.449Z,22.10
2023-03-18T14:53:41.841Z,21.40
2023-03-18T14:56:29.381Z,21.65
2023-03-18T14:58:57.742Z,22.85
2023-03-18T15:01:37.238Z,23.10
2023-03-18T15:04:07.538Z,23.42
2023-03-18T15:06:35.484Z,21.70
2023-03-18T15:09:08.568Z,21.95
2023-03-18T15:11:43.536Z,23.35
2023-03-18T15:14:32.685Z,22.27
2023-03-18T15:17:04.387Z,23.17
2023-03-18T15:19:32.786Z,24.10
2023-03-18T15:22:06.502Z,21.70
2023-03-18T15:24:34.421Z,21.75
2023-03-18T15:27:13.509Z,21.92
2023-03-18T15:29:54.554Z,22.50
2023-03-18T15:32:27.363Z,22.02
2023-03-18T15:34:59.427Z,20.88
2023-03-18T15:37:33.846Z,20.00
2023-03-18T15:40:31.101Z,20.55
2023-03-18T15:43:08.584Z,20.05
2023-03-18T15:45:52.987Z,20.98
2023-03-18T15:48:32.546Z,20.45
2023-03-18T15:51:02.815Z,20.45
2023-03-18T15:53:47.876Z,18.98
2023-03-18T15:56:36.684Z,18.60
2023-03-18T15:59:19.045Z,20.48
2023-03-18T16:01:50.014Z,21.80
2023-03-18T16:04:18.893Z,20.83
2023-03-18T16:06:46.809Z,21.42
2023-03-18T16:09:19.760Z,23.30
2023-03-18T16:11:52.178Z,23.90
2023-03-18T16:14:22.776Z,24.00
2023-03-18T16:16:50.535Z,22.38
2023-03-18T16:19:31.069Z,24.45
2023-03-18T16:22:00.441Z,23.73
2023-03-18T16:24:28.479Z,24.02
2023-03-18T16:26:59.461Z,24.17
2023-03-18T16:29:31.895Z,25.83
2023-03-18T16:32:04.575Z,25.05
2023-03-18T16:34:32.360Z,25.40
2023-03-18T16:37:00.258Z,24.73
2023-03-18T16:39:35.498Z,25.70
2023-03-18T16:42:05.177Z,25.50
2023-03-18T16:44:35.022Z,23.75
2023-03-18T16:47:02.672Z,24.95
2023-03-18T16:49:33.240Z,25.15
2023-03-18T16:52:04.446Z,26.10
2023-03-18T16:54:34.090Z,27.20
2023-03-18T16:57:04.506Z,26.40
2023-03-18T16:59:35.720Z,24.55
2023-03-18T17:02:04.264Z,25.33
2023-03-18T17:04:35.160Z,26.60
2023-03-18T17:07:05.175Z,25.15
2023-03-18T17:09:33.164Z,26.23
2023-03-18T17:12:06.192Z,27.50
2023-03-18T17:14:38.697Z,27.17
2023-03-18T17:17:25.301Z,24.77
2023-03-18T17:19:52.944Z,23.45
2023-03-18T17:22:27.027Z,25.00
2023-03-18T17:24:54.894Z,27.02
2023-03-18T17:27:30.162Z,28.38
2023-03-18T17:29:58.378Z,31.02
2023-03-18T17:32:26.129Z,28.10
2023-03-18T17:34:54.374Z,30.35
2023-03-18T17:37:23.709Z,30.38
2023-03-18T17:39:51.749Z,29.15
2023-03-18T17:42:32.039Z,29.23
2023-03-18T17:45:24.881Z,28.25
2023-03-18T17:47:54.643Z,28.85
2023-03-18T17:50:22.278Z,28.40
2023-03-18T17:52:53.153Z,28.17
2023-03-18T17:55:23.838Z,27.60
2023-03-18T17:57:51.970Z,26.00
2023-03-18T18:00:26.492Z,29.05
2023-03-18T18:02:55.043Z,29.15
2023-03-18T18:05:23.886Z,28.80
2023-03-18T18:07:53.153Z,27.77
2023-03-18T18:10:21.761Z,28.85
2023-03-18T18:12:50.042Z,28.00
2023-03-18T18:15:22.584Z,27.92
2023-03-18T18:17:50.536Z,29.60
2023-03-18T18:20:19.966Z,28.98
2023-03-18T18:22:54.702Z,29.70
2023-03-18T18:25:29.768Z,30.92
2023-03-18T18:27:58.132Z,33.20
2023-03-18T18:30:27.341Z,32.15
2023-03-18T18:32:55.123Z,29.52
2023-03-18T18:35:24.598Z,29.98
2023-03-18T18:37:52.327Z,22.20
2023-03-18T18:40:20.571Z,18.90
2023-03-18T18:42:48.796Z,17.67
2023-03-18T18:45:21.008Z,17.27
2023-03-18T18:47:48.604Z,13.13
2023-03-18T18:50:19.864Z,15.57
2023-03-18T18:52:47.736Z,13.15
2023-03-18T18:55:16.827Z,12.25
2023-03-18T18:57:45.860Z,12.57
2023-03-18T19:00:22.632Z,12.80
2023-03-18T19:02:53.451Z,13.27
2023-03-18T19:05:22.309Z,11.05
2023-03-18T19:07:50.505Z,11.45
2023-03-18T19:10:19.070Z,10.40
2023-03-18T19:12:47.351Z,10.82
2023-03-18T19:15:15.789Z,9.63
2023-03-18T19:17:43.604Z,7.70
2023-03-18T19:20:26.864Z,8.32
2023-03-18T19:22:54.498Z,8.30
2023-03-18T19:25:25.912Z,7.20
2023-03-18T19:27:54.912Z,8.75
2023-03-18T19:30:25.012Z,8.55
2023-03-18T19:32:52.841Z,9.23
2023-03-18T19:35:21.674Z,9.65
2023-03-18T19:37:50.241Z,8.98
2023-03-18T19:40:26.694Z,8.32
2023-03-18T19:42:55.621Z,9.75
2023-03-18T19:45:23.705Z,8.93
2023-03-18T19:47:51.910Z,11.40
2023-03-18T19:50:21.568Z,10.70
2023-03-18T19:52:49.946Z,9.68
2023-03-18T19:55:17.773Z,10.25
2023-03-18T19:57:48.764Z,11.82
2023-03-18T20:00:26.033Z,10.00
2023-03-18T20:02:55.684Z,10.18
2023-03-18T20:05:25.986Z,10.50
2023-03-18T20:07:54.279Z,10.10
2023-03-18T20:10:21.856Z,10.85
2023-03-18T20:12:51.203Z,10.82
2023-03-18T20:15:22.829Z,9.88
2023-03-18T20:17:51.933Z,10.45
2023-03-18T20:20:23.609Z,10.25
2023-03-18T20:22:54.847Z,9.25
2023-03-18T20:25:30.819Z,9.13
2023-03-18T20:28:00.809Z,8.90
2023-03-18T20:30:35.402Z,9.63
2023-03-18T20:33:04.595Z,9.77
2023-03-18T20:35:35.295Z,9.45
2023-03-18T20:38:32.753Z,8.15
2023-03-18T20:41:01.738Z,10.45
2023-03-18T20:43:29.955Z,11.32
2023-03-18T20:46:00.978Z,11.85
2023-03-18T20:48:29.132Z,12.57
2023-03-18T20:50:57.512Z,11.18
2023-03-18T20:53:29.083Z,9.77
2023-03-18T20:55:58.424Z,9.95
2023-03-18T20:58:28.105Z,9.85
2023-03-18T21:00:56.843Z,10.13
2023-03-18T21:03:25.015Z,8.65
2023-03-18T21:05:57.895Z,10.60
2023-03-18T21:08:27.137Z,9.67
2023-03-18T21:10:55.988Z,9.45
2023-03-18T21:13:28.954Z,10.40
2023-03-18T21:15:58.723Z,10.50
2023-03-18T21:18:27.758Z,10.93
2023-03-18T21:20:56.683Z,11.75
2023-03-18T21:23:27.707Z,9.23
2023-03-18T21:25:56.936Z,10.10
2023-03-18T21:28:25.725Z,9.38
2023-03-18T21:30:57.879Z,10.80
2023-03-18T21:33:28.455Z,10.63
2023-03-18T21:35:59.665Z,13.80
2023-03-18T21:38:29.954Z,12.40
2023-03-18T21:40:59.613Z,13.15
2023-03-18T21:43:33.394Z,13.52
2023-03-18T21:46:02.444Z,13.27
2023-03-18T21:48:30.435Z,16.30
2023-03-18T21:50:59.853Z,17.10
2023-03-18T21:53:28.958Z,16.85
2023-03-18T21:55:57.078Z,17.05
2023-03-18T21:58:27.245Z,17.35
2023-03-18T22:00:58.646Z,18.02
2023-03-18T22:03:29.734Z,17.33
2023-03-18T22:05:57.711Z,18.42
2023-03-18T22:08:26.016Z,18.50
2023-03-18T22:10:53.942Z,21.50
2023-03-18T22:13:25.195Z,19.95
2023-03-18T22:15:54.596Z,18.83
2023-03-18T22:18:23.250Z,21.67
2023-03-18T22:20:51.885Z,18.15
2023-03-18T22:23:26.597Z,20.38
2023-03-18T22:25:56.570Z,21.30
2023-03-18T22:28:26.057Z,21.88
2023-03-18T22:30:56.894Z,20.80
2023-03-18T22:33:28.683Z,22.88
2023-03-18T22:35:57.467Z,21.55
2023-03-18T22:38:26.999Z,21.58
2023-03-18T22:40:57.411Z,23.63
2023-03-18T22:43:31.820Z,22.50
2023-03-18T22:46:01.673Z,21.77
2023-03-18T22:48:29.924Z,21.25
2023-03-18T22:50:59.526Z,19.88
2023-03-18T22:53:34.149Z,21.33
2023-03-18T22:56:08.070Z,21.13
2023-03-18T22:58:36.570Z,20.42
2023-03-18T23:01:05.136Z,21.90
2023-03-18T23:03:35.994Z,20.27
2023-03-18T23:06:04.240Z,21.27
2023-03-18T23:08:32.343Z,21.63
2023-03-18T23:11:01.902Z,21.02
2023-03-18T23:13:38.922Z,21.58
2023-03-18T23:16:11.796Z,21.58
2023-03-18T23:18:40.058Z,21.80
2023-03-18T23:21:10.434Z,22.50
2023-03-18T23:23:38.472Z,22.25
2023-03-18T23:26:06.972Z,22.85
2023-03-18T23:28:44.118Z,21.02
2023-03-18T23:31:14.559Z,19.73
2023-03-18T23:33:42.661Z,18.08
2023-03-18T23:36:11.980Z,17.40
2023-03-18T23:38:40.702Z,16.08
2023-03-18T23:41:08.404Z,17.05
2023-03-18T23:43:36.957Z,16.65
2023-03-18T23:46:04.837Z,15.15
2023-03-18T23:48:33.428Z,16.13
2023-03-18T23:51:01.341Z,15.65
2023-03-18T23:53:29.390Z,14.90
2023-03-18T23:55:57.674Z,16.77
2023-03-18T23:58:25.268Z,14.88
